PWSweather.com
Personal Weather Stations
Station Observations
IMAZOWIE6
WarszawaPL

WarszawaPL

Lat: 52.27957, Lon: 21.05489

Elevation: 100

Station Type: WS1080

http://stacjapogody.waw.pl/

High Low Average
Temperature 62.2°F16.8°C 50.0°F10.0°C 53.9°F12.2°C
Dew Point -166.6°F-110.3°C -167.8°F-111.0°C -167.4°F-110.8°C
Winds 4.8 mph 7.7 kmh Calm Calm 1.0 mph N1.6 kmh N
Wind Gusts 8.8 mph14.2 kmh -- 3.0 mph4.8 kmh
Humidity - - -
Pressure 29.21 in989.2 mb 28.95 in980.4 mb -
Precipitation 0.00 in0.0 mm - -
Hour Temp Dew Point Humidity Winds Wind Gusts Pressure Precip Precip Rate Daily Precip Total
12:01 AM 51.4°F10.8°C -167.7°F-110.9°C - 2.0 mph N3.2 kmh N 6.2 mph10.0 kmh 28.97 in981.0 mb 0.00 in0.0 mm 0.00 in0.0 mm 0.00 in0.0 mm
12:16 AM 51.6°F10.9°C -167.6°F-110.9°C - 4.8 mph N7.7 kmh N 8.2 mph13.2 kmh 28.97 in981.0 mb 0.00 in0.0 mm 0.00 in0.0 mm 0.00 in0.0 mm
12:31 AM 51.8°F11.0°C -167.6°F-110.9°C - 2.8 mph N4.5 kmh N 6.2 mph10.0 kmh 28.97 in981.0 mb 0.00 in0.0 mm 0.00 in0.0 mm 0.00 in0.0 mm
12:46 AM 51.6°F10.9°C -167.6°F-110.9°C - 2.0 mph N3.2 kmh N 4.0 mph6.4 kmh 28.97 in981.0 mb 0.00 in0.0 mm 0.00 in0.0 mm 0.00 in0.0 mm
01:01 AM 51.4°F10.8°C -167.7°F-110.9°C - 2.8 mph N4.5 kmh N 5.4 mph8.7 kmh 28.96 in980.7 mb 0.00 in0.0 mm 0.00 in0.0 mm 0.00 in0.0 mm
01:16 AM 51.1°F10.6°C -167.7°F-110.9°C - 2.0 mph N3.2 kmh N 5.4 mph8.7 kmh 28.96 in980.7 mb 0.00 in0.0 mm 0.00 in0.0 mm 0.00 in0.0 mm
01:31 AM 51.1°F10.6°C -167.7°F-110.9°C - 1.4 mph N2.3 kmh N 3.4 mph5.5 kmh 28.96 in980.7 mb 0.00 in0.0 mm 0.00 in0.0 mm 0.00 in0.0 mm
01:46 AM 50.7°F10.4°C -167.7°F-110.9°C - 2.0 mph N3.2 kmh N 4.8 mph7.7 kmh 28.96 in980.7 mb 0.00 in0.0 mm 0.00 in0.0 mm 0.00 in0.0 mm
02:01 AM 50.7°F10.4°C -167.7°F-110.9°C - Calm Calm 3.4 mph5.5 kmh 28.96 in980.7 mb 0.00 in0.0 mm 0.00 in0.0 mm 0.00 in0.0 mm
02:16 AM 50.7°F10.4°C -167.7°F-110.9°C - 1.4 mph N2.3 kmh N 4.0 mph6.4 kmh 28.96 in980.7 mb 0.00 in0.0 mm 0.00 in0.0 mm 0.00 in0.0 mm
02:31 AM 50.7°F10.4°C -167.7°F-110.9°C - 2.8 mph N4.5 kmh N 6.2 mph10.0 kmh 28.95 in980.4 mb 0.00 in0.0 mm 0.00 in0.0 mm 0.00 in0.0 mm
02:46 AM 50.7°F10.4°C -167.7°F-110.9°C - 2.8 mph N4.5 kmh N 5.4 mph8.7 kmh 28.95 in980.4 mb 0.00 in0.0 mm 0.00 in0.0 mm 0.00 in0.0 mm
03:01 AM 51.1°F10.6°C -167.7°F-110.9°C - 0.6 mph N1.0 kmh N 6.2 mph10.0 kmh 28.95 in980.4 mb 0.00 in0.0 mm 0.00 in0.0 mm 0.00 in0.0 mm
03:16 AM 51.3°F10.7°C -167.7°F-110.9°C - 1.4 mph N2.3 kmh N 4.0 mph6.4 kmh 28.95 in980.4 mb 0.00 in0.0 mm 0.00 in0.0 mm 0.00 in0.0 mm
03:31 AM 51.4°F10.8°C -167.7°F-110.9°C - 2.8 mph N4.5 kmh N 4.8 mph7.7 kmh 28.95 in980.4 mb 0.00 in0.0 mm 0.00 in0.0 mm 0.00 in0.0 mm
03:46 AM 51.4°F10.8°C -167.7°F-110.9°C - 4.8 mph N7.7 kmh N 8.8 mph14.2 kmh 28.95 in980.4 mb 0.00 in0.0 mm 0.00 in0.0 mm 0.00 in0.0 mm
04:01 AM 51.1°F10.6°C -167.7°F-110.9°C - 4.0 mph N6.4 kmh N 6.8 mph10.9 kmh 28.96 in980.7 mb 0.00 in0.0 mm 0.00 in0.0 mm 0.00 in0.0 mm
04:16 AM 50.7°F10.4°C -167.7°F-110.9°C - 2.0 mph N3.2 kmh N 4.8 mph7.7 kmh 28.96 in980.7 mb 0.00 in0.0 mm 0.00 in0.0 mm 0.00 in0.0 mm
04:31 AM 50.5°F10.3°C -167.7°F-110.9°C - 4.0 mph N6.4 kmh N 8.8 mph14.2 kmh 28.97 in981.0 mb 0.00 in0.0 mm 0.00 in0.0 mm 0.00 in0.0 mm
04:46 AM 50.4°F10.2°C -167.8°F-111.0°C - 3.4 mph N5.5 kmh N 6.8 mph10.9 kmh 28.97 in981.0 mb 0.00 in0.0 mm 0.00 in0.0 mm 0.00 in0.0 mm
05:01 AM 50.0°F10.0°C -167.8°F-111.0°C - 2.8 mph N4.5 kmh N 4.8 mph7.7 kmh 28.97 in981.0 mb 0.00 in0.0 mm 0.00 in0.0 mm 0.00 in0.0 mm
05:16 AM 50.0°F10.0°C -167.8°F-111.0°C - 2.8 mph N4.5 kmh N 5.4 mph8.7 kmh 28.97 in981.0 mb 0.00 in0.0 mm 0.00 in0.0 mm 0.00 in0.0 mm
05:31 AM 50.2°F10.1°C -167.8°F-111.0°C - 2.8 mph N4.5 kmh N 4.0 mph6.4 kmh 28.97 in981.0 mb 0.00 in0.0 mm 0.00 in0.0 mm 0.00 in0.0 mm
05:46 AM 50.2°F10.1°C -167.8°F-111.0°C - 4.0 mph N6.4 kmh N 7.4 mph11.9 kmh 28.97 in981.0 mb 0.00 in0.0 mm 0.00 in0.0 mm 0.00 in0.0 mm
06:01 AM 50.5°F10.3°C -167.7°F-110.9°C - 3.4 mph N5.5 kmh N 8.8 mph14.2 kmh 28.98 in981.4 mb 0.00 in0.0 mm 0.00 in0.0 mm 0.00 in0.0 mm
06:16 AM 50.9°F10.5°C -167.7°F-110.9°C - 2.8 mph N4.5 kmh N 4.8 mph7.7 kmh 28.98 in981.4 mb 0.00 in0.0 mm 0.00 in0.0 mm 0.00 in0.0 mm
06:31 AM 51.1°F10.6°C -167.7°F-110.9°C - 2.8 mph N4.5 kmh N 5.4 mph8.7 kmh 28.98 in981.4 mb 0.00 in0.0 mm 0.00 in0.0 mm 0.00 in0.0 mm
06:46 AM 51.6°F10.9°C -167.6°F-110.9°C - 0.6 mph N1.0 kmh N 4.0 mph6.4 kmh 28.99 in981.7 mb 0.00 in0.0 mm 0.00 in0.0 mm 0.00 in0.0 mm
07:01 AM 51.8°F11.0°C -167.6°F-110.9°C - Calm Calm 4.8 mph7.7 kmh 28.99 in981.7 mb 0.00 in0.0 mm 0.00 in0.0 mm 0.00 in0.0 mm
07:16 AM 52.0°F11.1°C -167.6°F-110.9°C - 3.4 mph N5.5 kmh N 7.4 mph11.9 kmh 29.00 in982.1 mb 0.00 in0.0 mm 0.00 in0.0 mm 0.00 in0.0 mm
07:31 AM 52.3°F11.3°C -167.6°F-110.9°C - 3.4 mph N5.5 kmh N 6.8 mph10.9 kmh 29.01 in982.4 mb 0.00 in0.0 mm 0.00 in0.0 mm 0.00 in0.0 mm
07:46 AM 52.9°F11.6°C -167.5°F-110.8°C - 2.8 mph N4.5 kmh N 6.8 mph10.9 kmh 29.01 in982.4 mb 0.00 in0.0 mm 0.00 in0.0 mm 0.00 in0.0 mm
08:01 AM 53.4°F11.9°C -167.5°F-110.8°C - 3.4 mph N5.5 kmh N 6.8 mph10.9 kmh 29.02 in982.7 mb 0.00 in0.0 mm 0.00 in0.0 mm 0.00 in0.0 mm
08:16 AM 53.8°F12.1°C -167.4°F-110.8°C - 3.4 mph N5.5 kmh N 5.4 mph8.7 kmh 29.03 in983.1 mb 0.00 in0.0 mm 0.00 in0.0 mm 0.00 in0.0 mm
08:31 AM 54.3°F12.4°C -167.4°F-110.8°C - 2.0 mph N3.2 kmh N 6.2 mph10.0 kmh 29.03 in983.1 mb 0.00 in0.0 mm 0.00 in0.0 mm 0.00 in0.0 mm
08:46 AM 55.6°F13.1°C -167.2°F-110.7°C - 1.4 mph N2.3 kmh N 4.8 mph7.7 kmh 29.04 in983.4 mb 0.00 in0.0 mm 0.00 in0.0 mm 0.00 in0.0 mm
09:01 AM 57.9°F14.4°C -167.0°F-110.6°C - Calm Calm 2.0 mph3.2 kmh 29.04 in983.4 mb 0.00 in0.0 mm 0.00 in0.0 mm 0.00 in0.0 mm
09:16 AM 56.8°F13.8°C -167.1°F-110.6°C - 0.6 mph N1.0 kmh N 5.4 mph8.7 kmh 29.05 in983.7 mb 0.00 in0.0 mm 0.00 in0.0 mm 0.00 in0.0 mm
09:31 AM 56.5°F13.6°C -167.2°F-110.7°C - 0.6 mph N1.0 kmh N 4.8 mph7.7 kmh 29.05 in983.7 mb 0.00 in0.0 mm 0.00 in0.0 mm 0.00 in0.0 mm
09:46 AM 55.8°F13.2°C -167.2°F-110.7°C - Calm Calm 1.4 mph2.3 kmh 29.05 in983.7 mb 0.00 in0.0 mm 0.00 in0.0 mm 0.00 in0.0 mm
10:01 AM 55.4°F13.0°C -167.3°F-110.7°C - Calm Calm -- 29.05 in983.7 mb 0.00 in0.0 mm 0.00 in0.0 mm 0.00 in0.0 mm
10:16 AM 55.9°F13.3°C -167.2°F-110.7°C - Calm Calm -- 29.06 in984.1 mb 0.00 in0.0 mm 0.00 in0.0 mm 0.00 in0.0 mm
10:31 AM 56.7°F13.7°C -167.1°F-110.6°C - Calm Calm -- 29.06 in984.1 mb 0.00 in0.0 mm 0.00 in0.0 mm 0.00 in0.0 mm
10:46 AM 59.0°F15.0°C -166.9°F-110.5°C - Calm Calm -- 29.07 in984.4 mb 0.00 in0.0 mm 0.00 in0.0 mm 0.00 in0.0 mm
11:01 AM 58.5°F14.7°C -167.0°F-110.6°C - Calm Calm -- 29.08 in984.8 mb 0.00 in0.0 mm 0.00 in0.0 mm 0.00 in0.0 mm
11:16 AM 58.8°F14.9°C -166.9°F-110.5°C - Calm Calm -- 29.08 in984.8 mb 0.00 in0.0 mm 0.00 in0.0 mm 0.00 in0.0 mm
11:31 AM 61.2°F16.2°C -166.7°F-110.4°C - Calm Calm -- 29.08 in984.8 mb 0.00 in0.0 mm 0.00 in0.0 mm 0.00 in0.0 mm
11:46 AM 61.9°F16.6°C -166.6°F-110.3°C - Calm Calm -- 29.08 in984.8 mb 0.00 in0.0 mm 0.00 in0.0 mm 0.00 in0.0 mm
12:01 PM 62.2°F16.8°C -166.6°F-110.3°C - Calm Calm -- 29.09 in985.1 mb 0.00 in0.0 mm 0.00 in0.0 mm 0.00 in0.0 mm
12:16 PM 61.0°F16.1°C -166.7°F-110.4°C - Calm Calm 4.0 mph6.4 kmh 29.09 in985.1 mb 0.00 in0.0 mm 0.00 in0.0 mm 0.00 in0.0 mm
12:31 PM 59.5°F15.3°C -166.8°F-110.4°C - 1.4 mph N2.3 kmh N 5.4 mph8.7 kmh 29.09 in985.1 mb 0.00 in0.0 mm 0.00 in0.0 mm 0.00 in0.0 mm
12:46 PM 59.0°F15.0°C -166.9°F-110.5°C - Calm Calm -- 29.09 in985.1 mb 0.00 in0.0 mm 0.00 in0.0 mm 0.00 in0.0 mm
01:01 PM 59.2°F15.1°C -166.9°F-110.5°C - Calm Calm -- 29.10 in985.4 mb 0.00 in0.0 mm 0.00 in0.0 mm 0.00 in0.0 mm
01:16 PM 59.5°F15.3°C -166.8°F-110.4°C - Calm Calm -- 29.10 in985.4 mb 0.00 in0.0 mm 0.00 in0.0 mm 0.00 in0.0 mm
01:31 PM 59.5°F15.3°C -166.8°F-110.4°C - Calm Calm -- 29.10 in985.4 mb 0.00 in0.0 mm 0.00 in0.0 mm 0.00 in0.0 mm
01:46 PM 59.4°F15.2°C -166.9°F-110.5°C - Calm Calm 1.4 mph2.3 kmh 29.10 in985.4 mb 0.00 in0.0 mm 0.00 in0.0 mm 0.00 in0.0 mm
02:01 PM 58.8°F14.9°C -166.9°F-110.5°C - 0.6 mph N1.0 kmh N 3.4 mph5.5 kmh 29.11 in985.8 mb 0.00 in0.0 mm 0.00 in0.0 mm 0.00 in0.0 mm
02:16 PM 58.5°F14.7°C -167.0°F-110.6°C - 2.0 mph N3.2 kmh N 7.4 mph11.9 kmh 29.10 in985.4 mb 0.00 in0.0 mm 0.00 in0.0 mm 0.00 in0.0 mm
02:31 PM 58.3°F14.6°C -167.0°F-110.6°C - Calm Calm 0.6 mph1.0 kmh 29.11 in985.8 mb 0.00 in0.0 mm 0.00 in0.0 mm 0.00 in0.0 mm
02:46 PM 57.7°F14.3°C -167.0°F-110.6°C - Calm Calm 1.4 mph2.3 kmh 29.12 in986.1 mb 0.00 in0.0 mm 0.00 in0.0 mm 0.00 in0.0 mm
03:01 PM 57.2°F14.0°C -167.1°F-110.6°C - Calm Calm -- 29.12 in986.1 mb 0.00 in0.0 mm 0.00 in0.0 mm 0.00 in0.0 mm
03:16 PM 56.7°F13.7°C -167.1°F-110.6°C - 1.4 mph N2.3 kmh N 4.0 mph6.4 kmh 29.12 in986.1 mb 0.00 in0.0 mm 0.00 in0.0 mm 0.00 in0.0 mm
03:31 PM 56.1°F13.4°C -167.2°F-110.7°C - Calm Calm -- 29.12 in986.1 mb 0.00 in0.0 mm 0.00 in0.0 mm 0.00 in0.0 mm
03:46 PM 56.1°F13.4°C -167.2°F-110.7°C - Calm Calm 1.4 mph2.3 kmh 29.13 in986.5 mb 0.00 in0.0 mm 0.00 in0.0 mm 0.00 in0.0 mm
04:01 PM 56.5°F13.6°C -167.2°F-110.7°C - Calm Calm -- 29.13 in986.5 mb 0.00 in0.0 mm 0.00 in0.0 mm 0.00 in0.0 mm
04:16 PM 56.1°F13.4°C -167.2°F-110.7°C - Calm Calm 1.4 mph2.3 kmh 29.13 in986.5 mb 0.00 in0.0 mm 0.00 in0.0 mm 0.00 in0.0 mm
04:31 PM 55.6°F13.1°C -167.2°F-110.7°C - 0.6 mph N1.0 kmh N 3.4 mph5.5 kmh 29.13 in986.5 mb 0.00 in0.0 mm 0.00 in0.0 mm 0.00 in0.0 mm
04:46 PM 55.4°F13.0°C -167.3°F-110.7°C - Calm Calm 2.8 mph4.5 kmh 29.13 in986.5 mb 0.00 in0.0 mm 0.00 in0.0 mm 0.00 in0.0 mm
05:01 PM 55.0°F12.8°C -167.3°F-110.7°C - Calm Calm 2.8 mph4.5 kmh 29.14 in986.8 mb 0.00 in0.0 mm 0.00 in0.0 mm 0.00 in0.0 mm
05:16 PM 54.7°F12.6°C -167.3°F-110.7°C - Calm Calm 4.0 mph6.4 kmh 29.14 in986.8 mb 0.00 in0.0 mm 0.00 in0.0 mm 0.00 in0.0 mm
05:31 PM 54.3°F12.4°C -167.4°F-110.8°C - Calm Calm 2.0 mph3.2 kmh 29.15 in987.1 mb 0.00 in0.0 mm 0.00 in0.0 mm 0.00 in0.0 mm
05:46 PM 54.0°F12.2°C -167.4°F-110.8°C - Calm Calm 1.4 mph2.3 kmh 29.16 in987.5 mb 0.00 in0.0 mm 0.00 in0.0 mm 0.00 in0.0 mm
06:01 PM 53.8°F12.1°C -167.4°F-110.8°C - 0.6 mph N1.0 kmh N 3.4 mph5.5 kmh 29.16 in987.5 mb 0.00 in0.0 mm 0.00 in0.0 mm 0.00 in0.0 mm
06:16 PM 53.6°F12.0°C -167.4°F-110.8°C - Calm Calm 0.6 mph1.0 kmh 29.17 in987.8 mb 0.00 in0.0 mm 0.00 in0.0 mm 0.00 in0.0 mm
06:31 PM 53.4°F11.9°C -167.5°F-110.8°C - 1.4 mph N2.3 kmh N 6.2 mph10.0 kmh 29.17 in987.8 mb 0.00 in0.0 mm 0.00 in0.0 mm 0.00 in0.0 mm
06:46 PM 53.1°F11.7°C -167.5°F-110.8°C - Calm Calm 0.6 mph1.0 kmh 29.18 in988.1 mb 0.00 in0.0 mm 0.00 in0.0 mm 0.00 in0.0 mm
07:01 PM 53.1°F11.7°C -167.5°F-110.8°C - 0.6 mph N1.0 kmh N 2.0 mph3.2 kmh 29.17 in987.8 mb 0.00 in0.0 mm 0.00 in0.0 mm 0.00 in0.0 mm
07:16 PM 53.1°F11.7°C -167.5°F-110.8°C - Calm Calm 0.6 mph1.0 kmh 29.18 in988.1 mb 0.00 in0.0 mm 0.00 in0.0 mm 0.00 in0.0 mm
07:31 PM 52.7°F11.5°C -167.5°F-110.8°C - Calm Calm 0.6 mph1.0 kmh 29.18 in988.1 mb 0.00 in0.0 mm 0.00 in0.0 mm 0.00 in0.0 mm
07:46 PM 52.5°F11.4°C -167.5°F-110.8°C - Calm Calm -- 29.18 in988.1 mb 0.00 in0.0 mm 0.00 in0.0 mm 0.00 in0.0 mm
08:01 PM 52.5°F11.4°C -167.5°F-110.8°C - Calm Calm 0.6 mph1.0 kmh 29.19 in988.5 mb 0.00 in0.0 mm 0.00 in0.0 mm 0.00 in0.0 mm
08:16 PM 52.3°F11.3°C -167.6°F-110.9°C - Calm Calm 0.6 mph1.0 kmh 29.19 in988.5 mb 0.00 in0.0 mm 0.00 in0.0 mm 0.00 in0.0 mm
08:31 PM 52.2°F11.2°C -167.6°F-110.9°C - Calm Calm 3.4 mph5.5 kmh 29.19 in988.5 mb 0.00 in0.0 mm 0.00 in0.0 mm 0.00 in0.0 mm
08:46 PM 52.0°F11.1°C -167.6°F-110.9°C - Calm Calm 1.4 mph2.3 kmh 29.19 in988.5 mb 0.00 in0.0 mm 0.00 in0.0 mm 0.00 in0.0 mm
09:01 PM 52.2°F11.2°C -167.6°F-110.9°C - Calm Calm -- 29.19 in988.5 mb 0.00 in0.0 mm 0.00 in0.0 mm 0.00 in0.0 mm
09:16 PM 52.0°F11.1°C -167.6°F-110.9°C - Calm Calm 2.0 mph3.2 kmh 29.20 in988.8 mb 0.00 in0.0 mm 0.00 in0.0 mm 0.00 in0.0 mm
09:31 PM 52.0°F11.1°C -167.6°F-110.9°C - Calm Calm -- 29.20 in988.8 mb 0.00 in0.0 mm 0.00 in0.0 mm 0.00 in0.0 mm
09:46 PM 51.6°F10.9°C -167.6°F-110.9°C - Calm Calm 0.6 mph1.0 kmh 29.20 in988.8 mb 0.00 in0.0 mm 0.00 in0.0 mm 0.00 in0.0 mm
10:01 PM 51.6°F10.9°C -167.6°F-110.9°C - Calm Calm 0.6 mph1.0 kmh 29.20 in988.8 mb 0.00 in0.0 mm 0.00 in0.0 mm 0.00 in0.0 mm
10:16 PM 51.1°F10.6°C -167.7°F-110.9°C - Calm Calm 2.8 mph4.5 kmh 29.20 in988.8 mb 0.00 in0.0 mm 0.00 in0.0 mm 0.00 in0.0 mm
10:31 PM 50.9°F10.5°C -167.7°F-110.9°C - Calm Calm -- 29.20 in988.8 mb 0.00 in0.0 mm 0.00 in0.0 mm 0.00 in0.0 mm
10:46 PM 50.7°F10.4°C -167.7°F-110.9°C - Calm Calm -- 29.20 in988.8 mb 0.00 in0.0 mm 0.00 in0.0 mm 0.00 in0.0 mm
11:01 PM 50.4°F10.2°C -167.8°F-111.0°C - Calm Calm 1.4 mph2.3 kmh 29.21 in989.2 mb 0.00 in0.0 mm 0.00 in0.0 mm 0.00 in0.0 mm
11:16 PM 50.2°F10.1°C -167.8°F-111.0°C - Calm Calm 2.8 mph4.5 kmh 29.21 in989.2 mb 0.00 in0.0 mm 0.00 in0.0 mm 0.00 in0.0 mm
11:31 PM 50.2°F10.1°C -167.8°F-111.0°C - 0.6 mph N1.0 kmh N 2.8 mph4.5 kmh 29.21 in989.2 mb 0.00 in0.0 mm 0.00 in0.0 mm 0.00 in0.0 mm
11:46 PM 50.0°F10.0°C -167.8°F-111.0°C - Calm Calm 1.4 mph2.3 kmh 29.21 in989.2 mb 0.00 in0.0 mm 0.00 in0.0 mm 0.00 in0.0 mm